sensor_id;sensor_type;location;lat;lon;timestamp;pressure;altitude;pressure_sealevel;temperature;humidity
31681;BME280;18281;51.364;9.566;2023-05-22T00:01:18;99798.69;;;15.71;100.00
31681;BME280;18281;51.364;9.566;2023-05-22T00:03:44;99792.09;;;15.54;100.00
31681;BME280;18281;51.364;9.566;2023-05-22T00:06:09;99795.72;;;15.30;100.00
31681;BME280;18281;51.364;9.566;2023-05-22T00:08:36;99794.88;;;15.41;100.00
31681;BME280;18281;51.364;9.566;2023-05-22T00:11:02;99792.66;;;15.57;100.00
31681;BME280;18281;51.364;9.566;2023-05-22T00:13:27;99794.97;;;15.51;100.00
31681;BME280;18281;51.364;9.566;2023-05-22T00:15:53;99792.19;;;15.64;100.00
31681;BME280;18281;51.364;9.566;2023-05-22T00:18:18;99792.69;;;15.46;100.00
31681;BME280;18281;51.364;9.566;2023-05-22T00:20:43;99798.50;;;15.29;100.00
31681;BME280;18281;51.364;9.566;2023-05-22T00:23:11;99794.63;;;15.44;100.00
31681;BME280;18281;51.364;9.566;2023-05-22T00:25:37;99786.72;;;15.33;100.00
31681;BME280;18281;51.364;9.566;2023-05-22T00:28:03;99780.44;;;15.22;100.00
31681;BME280;18281;51.364;9.566;2023-05-22T00:30:29;99781.09;;;15.15;100.00
31681;BME280;18281;51.364;9.566;2023-05-22T00:32:55;99780.22;;;14.91;100.00
31681;BME280;18281;51.364;9.566;2023-05-22T00:35:21;99784.06;;;14.87;100.00
31681;BME280;18281;51.364;9.566;2023-05-22T00:37:46;99781.66;;;14.96;100.00
31681;BME280;18281;51.364;9.566;2023-05-22T00:40:13;99769.41;;;15.06;100.00
31681;BME280;18281;51.364;9.566;2023-05-22T00:42:42;99778.16;;;14.84;100.00
31681;BME280;18281;51.364;9.566;2023-05-22T00:45:09;99783.28;;;14.74;100.00
31681;BME280;18281;51.364;9.566;2023-05-22T00:47:35;99768.28;;;14.74;100.00
31681;BME280;18281;51.364;9.566;2023-05-22T00:50:01;99773.91;;;14.70;100.00
31681;BME280;18281;51.364;9.566;2023-05-22T00:52:27;99775.03;;;14.79;100.00
31681;BME280;18281;51.364;9.566;2023-05-22T00:54:53;99777.53;;;14.80;100.00
31681;BME280;18281;51.364;9.566;2023-05-22T00:57:19;99777.53;;;14.80;100.00
31681;BME280;18281;51.364;9.566;2023-05-22T00:59:47;99780.53;;;14.75;100.00
31681;BME280;18281;51.364;9.566;2023-05-22T01:02:13;99781.91;;;14.81;100.00
31681;BME280;18281;51.364;9.566;2023-05-22T01:04:42;99771.66;;;14.76;100.00
31681;BME280;18281;51.364;9.566;2023-05-22T01:07:13;99779.69;;;14.75;100.00
31681;BME280;18281;51.364;9.566;2023-05-22T01:09:38;99779.91;;;14.60;100.00
31681;BME280;18281;51.364;9.566;2023-05-22T01:12:19;99781.00;;;14.69;100.00
31681;BME280;18281;51.364;9.566;2023-05-22T01:20:03;99788.06;;;14.57;100.00
31681;BME280;18281;51.364;9.566;2023-05-22T01:28:48;99784.31;;;14.49;100.00
31681;BME280;18281;51.364;9.566;2023-05-22T01:31:23;99784.19;;;14.50;100.00
31681;BME280;18281;51.364;9.566;2023-05-22T01:33:57;99785.88;;;14.51;100.00
31681;BME280;18281;51.364;9.566;2023-05-22T01:36:28;99780.63;;;14.16;100.00
31681;BME280;18281;51.364;9.566;2023-05-22T01:38:55;99779.59;;;13.94;100.00
31681;BME280;18281;51.364;9.566;2023-05-22T01:41:21;99785.69;;;13.95;100.00
31681;BME280;18281;51.364;9.566;2023-05-22T01:43:47;99781.63;;;14.02;100.00
31681;BME280;18281;51.364;9.566;2023-05-22T01:46:12;99775.69;;;14.11;100.00
31681;BME280;18281;51.364;9.566;2023-05-22T01:48:37;99781.44;;;14.05;100.00
31681;BME280;18281;51.364;9.566;2023-05-22T01:54:13;99772.63;;;13.93;100.00
31681;BME280;18281;51.364;9.566;2023-05-22T01:56:54;99776.84;;;13.83;100.00
31681;BME280;18281;51.364;9.566;2023-05-22T01:59:40;99774.81;;;13.62;100.00
31681;BME280;18281;51.364;9.566;2023-05-22T02:02:09;99771.41;;;13.73;100.00
31681;BME280;18281;51.364;9.566;2023-05-22T02:04:38;99772.69;;;13.67;100.00
31681;BME280;18281;51.364;9.566;2023-05-22T02:07:06;99769.75;;;13.59;100.00
31681;BME280;18281;51.364;9.566;2023-05-22T02:09:34;99768.94;;;13.46;100.00
31681;BME280;18281;51.364;9.566;2023-05-22T02:12:01;99768.34;;;13.42;100.00
31681;BME280;18281;51.364;9.566;2023-05-22T02:14:27;99762.84;;;13.45;100.00
31681;BME280;18281;51.364;9.566;2023-05-22T02:16:53;99759.03;;;13.49;100.00
31681;BME280;18281;51.364;9.566;2023-05-22T02:19:19;99763.25;;;13.52;100.00
31681;BME280;18281;51.364;9.566;2023-05-22T02:21:44;99754.41;;;13.40;100.00
31681;BME280;18281;51.364;9.566;2023-05-22T02:24:09;99758.97;;;13.38;100.00
31681;BME280;18281;51.364;9.566;2023-05-22T02:26:35;99762.56;;;13.37;100.00
31681;BME280;18281;51.364;9.566;2023-05-22T02:29:01;99753.38;;;13.30;100.00
31681;BME280;18281;51.364;9.566;2023-05-22T02:31:27;99752.56;;;13.29;100.00
31681;BME280;18281;51.364;9.566;2023-05-22T02:33:53;99757.34;;;13.48;100.00
31681;BME280;18281;51.364;9.566;2023-05-22T02:36:19;99760.75;;;13.37;100.00
31681;BME280;18281;51.364;9.566;2023-05-22T02:38:44;99752.84;;;13.37;100.00
31681;BME280;18281;51.364;9.566;2023-05-22T02:41:10;99762.84;;;13.45;100.00
31681;BME280;18281;51.364;9.566;2023-05-22T02:43:35;99747.69;;;13.23;100.00
31681;BME280;18281;51.364;9.566;2023-05-22T02:46:01;99756.09;;;13.41;100.00
31681;BME280;18281;51.364;9.566;2023-05-22T02:48:26;99754.56;;;13.25;100.00
31681;BME280;18281;51.364;9.566;2023-05-22T02:50:53;99755.59;;;13.23;100.00
31681;BME280;18281;51.364;9.566;2023-05-22T02:53:18;99755.97;;;13.05;100.00
31681;BME280;18281;51.364;9.566;2023-05-22T02:55:44;99744.13;;;13.24;100.00
31681;BME280;18281;51.364;9.566;2023-05-22T02:58:10;99743.72;;;13.17;100.00
31681;BME280;18281;51.364;9.566;2023-05-22T03:00:39;99747.94;;;13.20;100.00
31681;BME280;18281;51.364;9.566;2023-05-22T03:03:05;99744.75;;;13.28;100.00
31681;BME280;18281;51.364;9.566;2023-05-22T03:05:31;99753.72;;;13.12;100.00
31681;BME280;18281;51.364;9.566;2023-05-22T03:07:57;99745.66;;;13.02;100.00
31681;BME280;18281;51.364;9.566;2023-05-22T03:10:23;99736.47;;;13.08;100.00
31681;BME280;18281;51.364;9.566;2023-05-22T03:12:49;99740.25;;;13.04;100.00
31681;BME280;18281;51.364;9.566;2023-05-22T03:15:16;99742.06;;;13.03;100.00
31681;BME280;18281;51.364;9.566;2023-05-22T03:17:42;99741.53;;;12.72;100.00
31681;BME280;18281;51.364;9.566;2023-05-22T03:20:07;99741.31;;;12.88;100.00
31681;BME280;18281;51.364;9.566;2023-05-22T03:22:33;99740.56;;;12.86;100.00
31681;BME280;18281;51.364;9.566;2023-05-22T03:24:58;99742.03;;;12.90;100.00
31681;BME280;18281;51.364;9.566;2023-05-22T03:27:24;99741.63;;;13.09;100.00
31681;BME280;18281;51.364;9.566;2023-05-22T03:29:49;99739.50;;;13.15;100.00
31681;BME280;18281;51.364;9.566;2023-05-22T03:32:15;99750.28;;;13.12;100.00
31681;BME280;18281;51.364;9.566;2023-05-22T03:34:41;99735.19;;;12.88;100.00
31681;BME280;18281;51.364;9.566;2023-05-22T03:37:07;99738.69;;;12.75;100.00
31681;BME280;18281;51.364;9.566;2023-05-22T03:39:33;99743.63;;;12.80;100.00
31681;BME280;18281;51.364;9.566;2023-05-22T03:41:59;99738.47;;;12.91;100.00
31681;BME280;18281;51.364;9.566;2023-05-22T03:44:25;99735.22;;;12.75;100.00
31681;BME280;18281;51.364;9.566;2023-05-22T03:46:50;99741.75;;;12.56;100.00
31681;BME280;18281;51.364;9.566;2023-05-22T03:49:16;99743.44;;;12.57;100.00
31681;BME280;18281;51.364;9.566;2023-05-22T03:51:41;99738.25;;;12.56;100.00
31681;BME280;18281;51.364;9.566;2023-05-22T03:54:06;99742.28;;;12.62;100.00
31681;BME280;18281;51.364;9.566;2023-05-22T03:56:32;99737.19;;;12.58;100.00
31681;BME280;18281;51.364;9.566;2023-05-22T03:58:57;99751.09;;;12.48;100.00
31681;BME280;18281;51.364;9.566;2023-05-22T04:01:22;99745.31;;;12.55;100.00
31681;BME280;18281;51.364;9.566;2023-05-22T04:03:48;99752.16;;;12.45;100.00
31681;BME280;18281;51.364;9.566;2023-05-22T04:06:13;99755.09;;;12.53;100.00
31681;BME280;18281;51.364;9.566;2023-05-22T04:08:39;99748.78;;;12.69;100.00
31681;BME280;18281;51.364;9.566;2023-05-22T04:11:04;99749.03;;;12.66;100.00
31681;BME280;18281;51.364;9.566;2023-05-22T04:13:30;99746.28;;;12.67;100.00
31681;BME280;18281;51.364;9.566;2023-05-22T04:15:55;99756.81;;;12.67;100.00
31681;BME280;18281;51.364;9.566;2023-05-22T04:18:21;99752.91;;;12.73;100.00
31681;BME280;18281;51.364;9.566;2023-05-22T04:20:46;99753.66;;;12.75;100.00
31681;BME280;18281;51.364;9.566;2023-05-22T04:23:12;99759.34;;;12.69;100.00
31681;BME280;18281;51.364;9.566;2023-05-22T04:25:38;99757.84;;;12.65;100.00
31681;BME280;18281;51.364;9.566;2023-05-22T04:28:03;99752.81;;;12.62;100.00
31681;BME280;18281;51.364;9.566;2023-05-22T04:30:29;99755.63;;;12.58;100.00
31681;BME280;18281;51.364;9.566;2023-05-22T04:32:58;99764.81;;;12.66;100.00
31681;BME280;18281;51.364;9.566;2023-05-22T04:35:24;99757.53;;;12.69;100.00
31681;BME280;18281;51.364;9.566;2023-05-22T04:37:49;99762.28;;;12.77;100.00
31681;BME280;18281;51.364;9.566;2023-05-22T04:40:15;99758.81;;;12.76;100.00
31681;BME280;18281;51.364;9.566;2023-05-22T04:42:41;99759.75;;;12.75;100.00
31681;BME280;18281;51.364;9.566;2023-05-22T04:45:07;99753.84;;;12.72;100.00
31681;BME280;18281;51.364;9.566;2023-05-22T04:47:34;99763.22;;;12.76;100.00
31681;BME280;18281;51.364;9.566;2023-05-22T04:50:02;99762.91;;;12.81;100.00
31681;BME280;18281;51.364;9.566;2023-05-22T04:52:28;99760.19;;;12.82;100.00
31681;BME280;18281;51.364;9.566;2023-05-22T04:54:53;99759.44;;;12.80;100.00
31681;BME280;18281;51.364;9.566;2023-05-22T04:57:22;99760.47;;;12.90;100.00
31681;BME280;18281;51.364;9.566;2023-05-22T04:59:50;99760.06;;;13.09;100.00
31681;BME280;18281;51.364;9.566;2023-05-22T05:02:16;99760.50;;;13.03;100.00
31681;BME280;18281;51.364;9.566;2023-05-22T05:04:41;99760.41;;;12.92;100.00
31681;BME280;18281;51.364;9.566;2023-05-22T05:07:07;99755.13;;;13.05;100.00
31681;BME280;18281;51.364;9.566;2023-05-22T05:09:33;99757.78;;;12.92;100.00
31681;BME280;18281;51.364;9.566;2023-05-22T05:11:59;99763.97;;;13.04;100.00
31681;BME280;18281;51.364;9.566;2023-05-22T05:14:24;99752.56;;;13.16;100.00
31681;BME280;18281;51.364;9.566;2023-05-22T05:16:50;99761.09;;;13.20;100.00
31681;BME280;18281;51.364;9.566;2023-05-22T05:19:17;99764.38;;;13.11;100.00
31681;BME280;18281;51.364;9.566;2023-05-22T05:21:45;99758.34;;;13.21;100.00
31681;BME280;18281;51.364;9.566;2023-05-22T05:24:11;99762.66;;;13.35;100.00
31681;BME280;18281;51.364;9.566;2023-05-22T05:26:37;99759.19;;;13.35;100.00
31681;BME280;18281;51.364;9.566;2023-05-22T05:29:02;99760.34;;;13.31;100.00
31681;BME280;18281;51.364;9.566;2023-05-22T05:31:27;99757.88;;;13.40;100.00
31681;BME280;18281;51.364;9.566;2023-05-22T05:33:53;99757.19;;;13.63;100.00
31681;BME280;18281;51.364;9.566;2023-05-22T05:36:23;99763.25;;;13.52;100.00
31681;BME280;18281;51.364;9.566;2023-05-22T05:38:48;99763.66;;;13.58;100.00
31681;BME280;18281;51.364;9.566;2023-05-22T05:41:13;99770.50;;;13.61;100.00
31681;BME280;18281;51.364;9.566;2023-05-22T05:43:39;99769.88;;;13.82;100.00
31681;BME280;18281;51.364;9.566;2023-05-22T05:46:04;99765.34;;;13.84;100.00
31681;BME280;18281;51.364;9.566;2023-05-22T05:48:30;99769.63;;;13.98;100.00
31681;BME280;18281;51.364;9.566;2023-05-22T05:50:55;99768.69;;;13.86;100.00
31681;BME280;18281;51.364;9.566;2023-05-22T05:53:20;99776.09;;;13.93;100.00
31681;BME280;18281;51.364;9.566;2023-05-22T05:55:46;99772.41;;;13.83;100.00
31681;BME280;18281;51.364;9.566;2023-05-22T05:58:12;99765.44;;;14.31;100.00
31681;BME280;18281;51.364;9.566;2023-05-22T06:00:37;99767.91;;;14.56;100.00
31681;BME280;18281;51.364;9.566;2023-05-22T06:03:03;99768.75;;;14.68;100.00
31681;BME280;18281;51.364;9.566;2023-05-22T06:05:28;99763.59;;;14.78;100.00
31681;BME280;18281;51.364;9.566;2023-05-22T06:07:53;99762.91;;;14.87;100.00
31681;BME280;18281;51.364;9.566;2023-05-22T06:10:22;99766.88;;;14.93;100.00
31681;BME280;18281;51.364;9.566;2023-05-22T06:12:47;99758.22;;;15.02;100.00
31681;BME280;18281;51.364;9.566;2023-05-22T06:15:13;99764.13;;;15.06;100.00
31681;BME280;18281;51.364;9.566;2023-05-22T06:17:38;99766.28;;;15.12;100.00
31681;BME280;18281;51.364;9.566;2023-05-22T06:20:04;99770.38;;;15.16;100.00
31681;BME280;18281;51.364;9.566;2023-05-22T06:22:31;99764.97;;;15.18;100.00
31681;BME280;18281;51.364;9.566;2023-05-22T06:24:56;99766.16;;;15.25;100.00
31681;BME280;18281;51.364;9.566;2023-05-22T06:27:22;99764.94;;;15.29;100.00
31681;BME280;18281;51.364;9.566;2023-05-22T06:29:49;99762.53;;;15.37;100.00
31681;BME280;18281;51.364;9.566;2023-05-22T06:32:15;99762.16;;;15.42;100.00
31681;BME280;18281;51.364;9.566;2023-05-22T06:34:41;99760.00;;;15.47;100.00
31681;BME280;18281;51.364;9.566;2023-05-22T06:37:08;99760.69;;;15.60;100.00
31681;BME280;18281;51.364;9.566;2023-05-22T06:39:34;99759.00;;;15.59;100.00
31681;BME280;18281;51.364;9.566;2023-05-22T06:41:59;99761.53;;;15.72;100.00
31681;BME280;18281;51.364;9.566;2023-05-22T06:44:24;99754.50;;;15.83;100.00
31681;BME280;18281;51.364;9.566;2023-05-22T06:46:50;99758.81;;;15.95;100.00
31681;BME280;18281;51.364;9.566;2023-05-22T06:49:16;99756.06;;;16.18;100.00
31681;BME280;18281;51.364;9.566;2023-05-22T06:51:42;99761.22;;;16.19;100.00
31681;BME280;18281;51.364;9.566;2023-05-22T06:54:07;99757.41;;;16.33;100.00
31681;BME280;18281;51.364;9.566;2023-05-22T06:56:33;99745.41;;;16.29;100.00
31681;BME280;18281;51.364;9.566;2023-05-22T06:58:59;99754.13;;;16.41;100.00
31681;BME280;18281;51.364;9.566;2023-05-22T07:01:24;99753.34;;;16.50;100.00
31681;BME280;18281;51.364;9.566;2023-05-22T07:03:49;99758.06;;;16.47;100.00
31681;BME280;18281;51.364;9.566;2023-05-22T07:06:15;99763.34;;;16.47;100.00
31681;BME280;18281;51.364;9.566;2023-05-22T07:08:40;99762.75;;;16.54;100.00
31681;BME280;18281;51.364;9.566;2023-05-22T07:11:05;99761.78;;;16.55;100.00
31681;BME280;18281;51.364;9.566;2023-05-22T07:13:32;99761.50;;;16.58;100.00
31681;BME280;18281;51.364;9.566;2023-05-22T07:15:58;99766.63;;;16.71;100.00
31681;BME280;18281;51.364;9.566;2023-05-22T07:18:23;99768.34;;;16.82;100.00
31681;BME280;18281;51.364;9.566;2023-05-22T07:20:48;99767.56;;;16.91;100.00
31681;BME280;18281;51.364;9.566;2023-05-22T07:23:14;99766.88;;;16.99;100.00
31681;BME280;18281;51.364;9.566;2023-05-22T07:25:39;99772.09;;;17.10;100.00
31681;BME280;18281;51.364;9.566;2023-05-22T07:28:05;99768.06;;;17.16;100.00
31681;BME280;18281;51.364;9.566;2023-05-22T07:30:34;99765.28;;;17.27;100.00
31681;BME280;18281;51.364;9.566;2023-05-22T07:33:00;99762.63;;;17.18;100.00
31681;BME280;18281;51.364;9.566;2023-05-22T07:35:25;99767.94;;;17.27;100.00
31681;BME280;18281;51.364;9.566;2023-05-22T07:37:51;99776.66;;;17.39;100.00
31681;BME280;18281;51.364;9.566;2023-05-22T07:40:16;99771.66;;;17.46;100.00
31681;BME280;18281;51.364;9.566;2023-05-22T07:42:41;99762.34;;;17.62;100.00
31681;BME280;18281;51.364;9.566;2023-05-22T07:45:07;99769.06;;;17.75;100.00
31681;BME280;18281;51.364;9.566;2023-05-22T07:47:33;99759.44;;;17.84;100.00
31681;BME280;18281;51.364;9.566;2023-05-22T07:49:58;99764.16;;;17.90;100.00
31681;BME280;18281;51.364;9.566;2023-05-22T07:52:23;99765.72;;;17.93;100.00
31681;BME280;18281;51.364;9.566;2023-05-22T07:54:49;99760.16;;;18.16;100.00
31681;BME280;18281;51.364;9.566;2023-05-22T07:57:14;99765.34;;;18.27;100.00
31681;BME280;18281;51.364;9.566;2023-05-22T07:59:40;99757.47;;;18.45;100.00
31681;BME280;18281;51.364;9.566;2023-05-22T08:02:08;99762.19;;;18.61;100.00
31681;BME280;18281;51.364;9.566;2023-05-22T08:04:34;99756.00;;;18.70;100.00
31681;BME280;18281;51.364;9.566;2023-05-22T08:06:59;99746.19;;;18.81;100.00
31681;BME280;18281;51.364;9.566;2023-05-22T08:09:25;99757.84;;;18.70;100.00
31681;BME280;18281;51.364;9.566;2023-05-22T08:11:51;99762.00;;;18.82;100.00
31681;BME280;18281;51.364;9.566;2023-05-22T08:14:16;99755.22;;;18.98;100.00
31681;BME280;18281;51.364;9.566;2023-05-22T08:16:41;99747.38;;;19.06;100.00
31681;BME280;18281;51.364;9.566;2023-05-22T08:19:07;99752.09;;;19.12;100.00
31681;BME280;18281;51.364;9.566;2023-05-22T08:21:32;99757.50;;;19.20;100.00
31681;BME280;18281;51.364;9.566;2023-05-22T08:23:59;99738.84;;;19.30;100.00
31681;BME280;18281;51.364;9.566;2023-05-22T08:26:24;99745.47;;;19.44;100.00
31681;BME280;18281;51.364;9.566;2023-05-22T08:28:50;99742.06;;;19.52;100.00
31681;BME280;18281;51.364;9.566;2023-05-22T08:31:16;99741.09;;;19.53;100.00
31681;BME280;18281;51.364;9.566;2023-05-22T08:33:41;99742.78;;;19.72;100.00
31681;BME280;18281;51.364;9.566;2023-05-22T08:36:07;99739.59;;;19.86;100.00
31681;BME280;18281;51.364;9.566;2023-05-22T08:38:32;99740.19;;;19.98;98.67
31681;BME280;18281;51.364;9.566;2023-05-22T08:40:57;99738.44;;;20.07;100.00
31681;BME280;18281;51.364;9.566;2023-05-22T08:43:24;99738.44;;;20.07;100.00
31681;BME280;18281;51.364;9.566;2023-05-22T08:45:55;99742.94;;;20.06;100.00
31681;BME280;18281;51.364;9.566;2023-05-22T08:48:22;99731.34;;;20.16;100.00
31681;BME280;18281;51.364;9.566;2023-05-22T08:50:52;99731.47;;;20.32;100.00
31681;BME280;18281;51.364;9.566;2023-05-22T08:53:21;99732.84;;;20.36;99.72
31681;BME280;18281;51.364;9.566;2023-05-22T08:55:48;99732.44;;;20.31;99.36
31681;BME280;18281;51.364;9.566;2023-05-22T08:58:13;99724.28;;;20.33;98.00
31681;BME280;18281;51.364;9.566;2023-05-22T09:00:40;99722.44;;;20.51;97.62
31681;BME280;18281;51.364;9.566;2023-05-22T09:03:06;99722.63;;;20.50;96.23
31681;BME280;18281;51.364;9.566;2023-05-22T09:05:34;99715.38;;;20.68;96.47
31681;BME280;18281;51.364;9.566;2023-05-22T09:08:01;99727.53;;;20.63;95.30
31681;BME280;18281;51.364;9.566;2023-05-22T09:10:28;99719.28;;;20.82;95.67
31681;BME280;18281;51.364;9.566;2023-05-22T09:13:07;99731.03;;;20.98;95.46
31681;BME280;18281;51.364;9.566;2023-05-22T09:15:37;99725.06;;;21.04;93.61
31681;BME280;18281;51.364;9.566;2023-05-22T09:18:05;99725.75;;;21.06;93.32
31681;BME280;18281;51.364;9.566;2023-05-22T09:20:34;99719.34;;;20.99;91.91
31681;BME280;18281;51.364;9.566;2023-05-22T09:23:00;99719.81;;;21.20;93.65
31681;BME280;18281;51.364;9.566;2023-05-22T09:25:26;99720.47;;;21.31;94.19
31681;BME280;18281;51.364;9.566;2023-05-22T09:27:52;99716.00;;;21.39;94.71
31681;BME280;18281;51.364;9.566;2023-05-22T09:30:18;99716.84;;;21.48;91.95
31681;BME280;18281;51.364;9.566;2023-05-22T09:32:44;99713.88;;;21.59;92.31
31681;BME280;18281;51.364;9.566;2023-05-22T09:35:11;99711.84;;;21.45;90.06
31681;BME280;18281;51.364;9.566;2023-05-22T09:37:37;99716.56;;;21.68;90.79
31681;BME280;18281;51.364;9.566;2023-05-22T09:40:20;99701.53;;;21.67;90.29
31681;BME280;18281;51.364;9.566;2023-05-22T09:42:46;99704.19;;;21.58;84.01
31681;BME280;18281;51.364;9.566;2023-05-22T09:45:11;99707.72;;;21.59;82.62
31681;BME280;18281;51.364;9.566;2023-05-22T09:47:37;99700.34;;;21.69;84.47
31681;BME280;18281;51.364;9.566;2023-05-22T09:50:03;99705.25;;;21.90;84.08
31681;BME280;18281;51.364;9.566;2023-05-22T09:52:35;99702.75;;;21.97;83.18
31681;BME280;18281;51.364;9.566;2023-05-22T09:55:03;99700.91;;;22.06;82.01
31681;BME280;18281;51.364;9.566;2023-05-22T09:57:31;99695.03;;;22.10;82.14
31681;BME280;18281;51.364;9.566;2023-05-22T09:59:58;99708.91;;;22.14;82.01
31681;BME280;18281;51.364;9.566;2023-05-22T10:02:25;99698.56;;;22.19;83.93
31681;BME280;18281;51.364;9.566;2023-05-22T10:04:52;99707.59;;;22.10;82.80
31681;BME280;18281;51.364;9.566;2023-05-22T10:07:22;99706.88;;;22.24;83.40
31681;BME280;18281;51.364;9.566;2023-05-22T10:10:02;99704.91;;;22.18;81.13
31681;BME280;18281;51.364;9.566;2023-05-22T10:12:31;99708.53;;;22.34;82.74
31681;BME280;18281;51.364;9.566;2023-05-22T10:15:00;99698.03;;;22.40;83.63
31681;BME280;18281;51.364;9.566;2023-05-22T10:17:25;99696.81;;;22.51;84.79
31681;BME280;18281;51.364;9.566;2023-05-22T10:19:52;99705.19;;;22.48;84.60
31681;BME280;18281;51.364;9.566;2023-05-22T10:22:19;99701.19;;;22.44;83.08
31681;BME280;18281;51.364;9.566;2023-05-22T10:24:49;99700.34;;;22.52;80.30
31681;BME280;18281;51.364;9.566;2023-05-22T10:27:16;99701.00;;;22.54;80.01
31681;BME280;18281;51.364;9.566;2023-05-22T10:29:48;99703.97;;;22.67;81.34
31681;BME280;18281;51.364;9.566;2023-05-22T10:32:32;99695.63;;;22.70;80.53
31681;BME280;18281;51.364;9.566;2023-05-22T10:41:00;99688.38;;;22.79;80.38
31681;BME280;18281;51.364;9.566;2023-05-22T10:43:29;99682.66;;;22.90;80.27
31681;BME280;18281;51.364;9.566;2023-05-22T10:46:03;99683.31;;;22.92;80.97
31681;BME280;18281;51.364;9.566;2023-05-22T10:48:36;99675.94;;;23.03;78.89
31681;BME280;18281;51.364;9.566;2023-05-22T10:51:02;99678.69;;;23.18;79.96
31681;BME280;18281;51.364;9.566;2023-05-22T10:53:31;99679.81;;;23.23;79.24
31681;BME280;18281;51.364;9.566;2023-05-22T10:55:57;99670.84;;;23.16;78.78
31681;BME280;18281;51.364;9.566;2023-05-22T10:58:31;99672.16;;;23.20;75.88
31681;BME280;18281;51.364;9.566;2023-05-22T11:01:19;99673.88;;;23.13;76.91
31681;BME280;18281;51.364;9.566;2023-05-22T11:04:20;99668.78;;;23.26;76.19
31681;BME280;18281;51.364;9.566;2023-05-22T11:07:01;99673.16;;;23.19;72.52
31681;BME280;18281;51.364;9.566;2023-05-22T11:09:42;99663.50;;;23.10;72.50
31681;BME280;18281;51.364;9.566;2023-05-22T11:12:12;99667.69;;;23.36;75.55
31681;BME280;18281;51.364;9.566;2023-05-22T11:14:38;99668.28;;;23.46;74.92
31681;BME280;18281;51.364;9.566;2023-05-22T11:17:07;99663.53;;;23.56;74.10
31681;BME280;18281;51.364;9.566;2023-05-22T11:19:33;99658.75;;;23.43;72.81
31681;BME280;18281;51.364;9.566;2023-05-22T11:22:02;99665.72;;;23.76;74.16
31681;BME280;18281;51.364;9.566;2023-05-22T11:24:32;99660.81;;;23.65;67.59
31681;BME280;18281;51.364;9.566;2023-05-22T11:27:04;99658.09;;;23.88;70.92
31681;BME280;18281;51.364;9.566;2023-05-22T11:29:31;99650.22;;;23.71;66.12
31681;BME280;18281;51.364;9.566;2023-05-22T11:31:57;99644.25;;;23.84;71.56
31681;BME280;18281;51.364;9.566;2023-05-22T11:34:24;99639.19;;;24.04;70.78
31681;BME280;18281;51.364;9.566;2023-05-22T11:36:51;99640.00;;;24.05;70.30
31681;BME280;18281;51.364;9.566;2023-05-22T11:39:16;99638.00;;;24.07;67.97
31681;BME280;18281;51.364;9.566;2023-05-22T11:41:42;99640.38;;;24.02;70.33
31681;BME280;18281;51.364;9.566;2023-05-22T11:44:07;99628.91;;;24.08;70.51
31681;BME280;18281;51.364;9.566;2023-05-22T11:46:33;99631.59;;;23.93;66.67
31681;BME280;18281;51.364;9.566;2023-05-22T11:48:58;99635.06;;;24.32;70.75
31681;BME280;18281;51.364;9.566;2023-05-22T11:51:26;99626.84;;;24.33;70.07
31681;BME280;18281;51.364;9.566;2023-05-22T11:53:52;99615.75;;;24.36;70.22
31681;BME280;18281;51.364;9.566;2023-05-22T11:56:19;99612.13;;;24.44;70.03
31681;BME280;18281;51.364;9.566;2023-05-22T11:58:51;99606.47;;;24.54;68.55
31681;BME280;18281;51.364;9.566;2023-05-22T12:01:16;99612.19;;;24.51;67.24
31681;BME280;18281;51.364;9.566;2023-05-22T12:03:41;99601.38;;;24.44;67.45
31681;BME280;18281;51.364;9.566;2023-05-22T12:06:07;99594.28;;;24.36;65.05
31681;BME280;18281;51.364;9.566;2023-05-22T12:08:33;99602.59;;;24.56;68.60
31681;BME280;18281;51.364;9.566;2023-05-22T12:10:58;99594.00;;;24.46;66.03
31681;BME280;18281;51.364;9.566;2023-05-22T12:13:26;99601.94;;;24.54;64.95
31681;BME280;18281;51.364;9.566;2023-05-22T12:15:53;99601.03;;;24.47;66.42
31681;BME280;18281;51.364;9.566;2023-05-22T12:18:19;99595.59;;;24.40;65.80
31681;BME280;18281;51.364;9.566;2023-05-22T12:20:44;99596.69;;;24.46;69.22
31681;BME280;18281;51.364;9.566;2023-05-22T12:23:30;99597.84;;;24.58;66.16
31681;BME280;18281;51.364;9.566;2023-05-22T12:26:00;99595.16;;;24.58;69.49
31681;BME280;18281;51.364;9.566;2023-05-22T12:28:26;99599.22;;;24.69;67.28
31681;BME280;18281;51.364;9.566;2023-05-22T12:30:55;99594.13;;;24.74;67.18
31681;BME280;18281;51.364;9.566;2023-05-22T12:33:27;99592.44;;;24.73;66.45
31681;BME280;18281;51.364;9.566;2023-05-22T12:35:53;99592.75;;;24.64;66.38
31681;BME280;18281;51.364;9.566;2023-05-22T12:38:21;99593.06;;;24.54;66.28
31681;BME280;18281;51.364;9.566;2023-05-22T12:40:49;99599.59;;;24.66;65.95
31681;BME280;18281;51.364;9.566;2023-05-22T12:43:15;99599.88;;;24.86;68.11
31681;BME280;18281;51.364;9.566;2023-05-22T12:45:40;99592.34;;;24.97;68.32
31681;BME280;18281;51.364;9.566;2023-05-22T12:48:06;99584.03;;;24.76;65.10
31681;BME280;18281;51.364;9.566;2023-05-22T12:50:33;99582.63;;;24.81;67.10
31681;BME280;18281;51.364;9.566;2023-05-22T12:52:58;99577.81;;;24.76;64.98
31681;BME280;18281;51.364;9.566;2023-05-22T12:55:23;99579.66;;;24.90;66.67
31681;BME280;18281;51.364;9.566;2023-05-22T12:57:49;99581.69;;;24.88;65.46
31681;BME280;18281;51.364;9.566;2023-05-22T13:00:14;99579.09;;;24.95;65.74
31681;BME280;18281;51.364;9.566;2023-05-22T13:02:40;99578.09;;;24.81;64.37
31681;BME280;18281;51.364;9.566;2023-05-22T13:05:06;99578.38;;;24.86;67.01
31681;BME280;18281;51.364;9.566;2023-05-22T13:07:31;99575.59;;;24.95;65.26
31681;BME280;18281;51.364;9.566;2023-05-22T13:09:57;99576.97;;;24.90;64.10
31681;BME280;18281;51.364;9.566;2023-05-22T13:12:22;99587.59;;;24.99;65.12